sensor_id;sensor_type;location;lat;lon;timestamp;P1;durP1;ratioP1;P2;durP2;ratioP2
38581;SDS011;24349;53.720;10.014;2022-07-06T00:02:14;6.10;;;1.92;;
38581;SDS011;24349;53.720;10.014;2022-07-06T00:04:40;7.45;;;1.88;;
38581;SDS011;24349;53.720;10.014;2022-07-06T00:07:06;6.55;;;1.95;;
38581;SDS011;24349;53.720;10.014;2022-07-06T00:09:32;7.05;;;1.90;;
38581;SDS011;24349;53.720;10.014;2022-07-06T00:11:58;5.93;;;1.73;;
38581;SDS011;24349;53.720;10.014;2022-07-06T00:14:24;8.50;;;1.80;;
38581;SDS011;24349;53.720;10.014;2022-07-06T00:16:49;5.57;;;1.90;;
38581;SDS011;24349;53.720;10.014;2022-07-06T00:19:15;7.60;;;2.00;;
38581;SDS011;24349;53.720;10.014;2022-07-06T00:21:41;11.18;;;1.92;;
38581;SDS011;24349;53.720;10.014;2022-07-06T00:24:07;6.00;;;1.77;;
38581;SDS011;24349;53.720;10.014;2022-07-06T00:26:33;7.47;;;2.17;;
38581;SDS011;24349;53.720;10.014;2022-07-06T00:28:58;7.18;;;2.20;;
38581;SDS011;24349;53.720;10.014;2022-07-06T00:31:24;4.78;;;2.05;;
38581;SDS011;24349;53.720;10.014;2022-07-06T00:33:50;7.30;;;2.08;;
38581;SDS011;24349;53.720;10.014;2022-07-06T00:36:16;7.05;;;1.80;;
38581;SDS011;24349;53.720;10.014;2022-07-06T00:38:41;8.60;;;1.90;;
38581;SDS011;24349;53.720;10.014;2022-07-06T00:41:07;6.13;;;1.90;;
38581;SDS011;24349;53.720;10.014;2022-07-06T00:43:49;7.65;;;2.05;;
38581;SDS011;24349;53.720;10.014;2022-07-06T00:46:16;6.57;;;1.90;;
38581;SDS011;24349;53.720;10.014;2022-07-06T00:48:42;8.32;;;2.22;;
38581;SDS011;24349;53.720;10.014;2022-07-06T00:51:08;6.38;;;1.75;;
38581;SDS011;24349;53.720;10.014;2022-07-06T00:53:34;5.03;;;1.80;;
38581;SDS011;24349;53.720;10.014;2022-07-06T00:56:00;6.93;;;1.80;;
38581;SDS011;24349;53.720;10.014;2022-07-06T00:58:26;6.05;;;1.65;;
38581;SDS011;24349;53.720;10.014;2022-07-06T01:00:52;5.03;;;1.63;;
38581;SDS011;24349;53.720;10.014;2022-07-06T01:03:17;7.28;;;1.90;;
38581;SDS011;24349;53.720;10.014;2022-07-06T01:05:43;8.60;;;1.80;;
38581;SDS011;24349;53.720;10.014;2022-07-06T01:08:09;5.88;;;1.80;;
38581;SDS011;24349;53.720;10.014;2022-07-06T01:10:36;8.63;;;2.05;;
38581;SDS011;24349;53.720;10.014;2022-07-06T01:13:01;7.10;;;1.70;;
38581;SDS011;24349;53.720;10.014;2022-07-06T01:15:27;4.85;;;1.80;;
38581;SDS011;24349;53.720;10.014;2022-07-06T01:17:53;7.28;;;1.85;;
38581;SDS011;24349;53.720;10.014;2022-07-06T01:20:20;5.95;;;1.92;;
38581;SDS011;24349;53.720;10.014;2022-07-06T01:22:47;5.78;;;1.70;;
38581;SDS011;24349;53.720;10.014;2022-07-06T01:25:15;5.78;;;1.80;;
38581;SDS011;24349;53.720;10.014;2022-07-06T01:27:41;6.68;;;1.80;;
38581;SDS011;24349;53.720;10.014;2022-07-06T01:30:08;5.78;;;1.83;;
38581;SDS011;24349;53.720;10.014;2022-07-06T01:32:39;6.80;;;1.65;;
38581;SDS011;24349;53.720;10.014;2022-07-06T01:35:06;7.07;;;1.88;;
38581;SDS011;24349;53.720;10.014;2022-07-06T01:37:34;7.22;;;2.15;;
38581;SDS011;24349;53.720;10.014;2022-07-06T01:40:00;5.10;;;1.83;;
38581;SDS011;24349;53.720;10.014;2022-07-06T01:42:27;6.60;;;1.88;;
38581;SDS011;24349;53.720;10.014;2022-07-06T01:44:53;7.65;;;2.22;;
38581;SDS011;24349;53.720;10.014;2022-07-06T01:47:19;5.63;;;1.70;;
38581;SDS011;24349;53.720;10.014;2022-07-06T01:49:44;7.00;;;1.70;;
38581;SDS011;24349;53.720;10.014;2022-07-06T01:52:10;5.68;;;1.77;;
38581;SDS011;24349;53.720;10.014;2022-07-06T01:54:36;6.32;;;1.60;;
38581;SDS011;24349;53.720;10.014;2022-07-06T01:57:02;4.60;;;1.10;;
38581;SDS011;24349;53.720;10.014;2022-07-06T01:59:28;4.35;;;1.50;;
38581;SDS011;24349;53.720;10.014;2022-07-06T02:01:53;5.47;;;1.63;;
38581;SDS011;24349;53.720;10.014;2022-07-06T02:04:19;6.25;;;1.83;;
38581;SDS011;24349;53.720;10.014;2022-07-06T02:06:44;7.43;;;2.00;;
38581;SDS011;24349;53.720;10.014;2022-07-06T02:09:10;3.58;;;1.40;;
38581;SDS011;24349;53.720;10.014;2022-07-06T02:11:36;5.93;;;1.70;;
38581;SDS011;24349;53.720;10.014;2022-07-06T02:14:02;5.57;;;1.42;;
38581;SDS011;24349;53.720;10.014;2022-07-06T02:16:27;4.35;;;1.50;;
38581;SDS011;24349;53.720;10.014;2022-07-06T02:18:53;5.30;;;1.55;;
38581;SDS011;24349;53.720;10.014;2022-07-06T02:21:20;4.15;;;1.63;;
38581;SDS011;24349;53.720;10.014;2022-07-06T02:23:46;5.18;;;1.38;;
38581;SDS011;24349;53.720;10.014;2022-07-06T02:26:11;3.20;;;1.23;;
38581;SDS011;24349;53.720;10.014;2022-07-06T02:28:37;4.10;;;1.20;;
38581;SDS011;24349;53.720;10.014;2022-07-06T02:31:03;4.97;;;1.42;;
38581;SDS011;24349;53.720;10.014;2022-07-06T02:33:29;3.28;;;1.23;;
38581;SDS011;24349;53.720;10.014;2022-07-06T02:35:54;6.00;;;1.60;;
38581;SDS011;24349;53.720;10.014;2022-07-06T02:38:20;4.40;;;1.35;;
38581;SDS011;24349;53.720;10.014;2022-07-06T02:40:46;5.47;;;1.70;;
38581;SDS011;24349;53.720;10.014;2022-07-06T02:43:13;2.53;;;1.10;;
38581;SDS011;24349;53.720;10.014;2022-07-06T02:45:39;2.70;;;1.20;;
38581;SDS011;24349;53.720;10.014;2022-07-06T02:48:05;5.05;;;1.40;;
38581;SDS011;24349;53.720;10.014;2022-07-06T02:50:30;3.42;;;1.17;;
38581;SDS011;24349;53.720;10.014;2022-07-06T02:52:56;3.85;;;1.48;;
38581;SDS011;24349;53.720;10.014;2022-07-06T02:55:23;5.78;;;1.40;;
38581;SDS011;24349;53.720;10.014;2022-07-06T02:57:49;4.38;;;1.33;;
38581;SDS011;24349;53.720;10.014;2022-07-06T03:00:15;5.20;;;1.55;;
38581;SDS011;24349;53.720;10.014;2022-07-06T03:02:41;4.63;;;1.40;;
38581;SDS011;24349;53.720;10.014;2022-07-06T03:05:07;4.18;;;1.30;;
38581;SDS011;24349;53.720;10.014;2022-07-06T03:07:33;3.30;;;1.17;;
38581;SDS011;24349;53.720;10.014;2022-07-06T03:09:59;4.10;;;1.30;;
38581;SDS011;24349;53.720;10.014;2022-07-06T03:12:24;8.50;;;1.60;;
38581;SDS011;24349;53.720;10.014;2022-07-06T03:14:50;4.50;;;1.42;;
38581;SDS011;24349;53.720;10.014;2022-07-06T03:17:16;3.15;;;1.20;;
38581;SDS011;24349;53.720;10.014;2022-07-06T03:19:41;6.47;;;1.75;;
38581;SDS011;24349;53.720;10.014;2022-07-06T03:22:07;5.22;;;1.35;;
38581;SDS011;24349;53.720;10.014;2022-07-06T03:24:33;6.95;;;1.63;;
38581;SDS011;24349;53.720;10.014;2022-07-06T03:26:58;7.57;;;1.98;;
38581;SDS011;24349;53.720;10.014;2022-07-06T03:29:24;4.40;;;1.70;;
38581;SDS011;24349;53.720;10.014;2022-07-06T03:31:49;4.53;;;1.45;;
38581;SDS011;24349;53.720;10.014;2022-07-06T03:34:15;5.25;;;1.52;;
38581;SDS011;24349;53.720;10.014;2022-07-06T03:36:41;4.45;;;1.40;;
38581;SDS011;24349;53.720;10.014;2022-07-06T03:39:06;6.70;;;2.58;;
38581;SDS011;24349;53.720;10.014;2022-07-06T03:41:32;5.32;;;1.42;;
38581;SDS011;24349;53.720;10.014;2022-07-06T03:43:58;5.20;;;1.30;;
38581;SDS011;24349;53.720;10.014;2022-07-06T03:46:24;6.85;;;2.03;;
38581;SDS011;24349;53.720;10.014;2022-07-06T03:48:50;5.32;;;1.55;;
38581;SDS011;24349;53.720;10.014;2022-07-06T03:51:16;6.00;;;1.70;;
38581;SDS011;24349;53.720;10.014;2022-07-06T03:53:42;5.05;;;1.42;;
38581;SDS011;24349;53.720;10.014;2022-07-06T03:56:07;5.75;;;1.90;;
38581;SDS011;24349;53.720;10.014;2022-07-06T03:58:51;6.40;;;1.45;;
38581;SDS011;24349;53.720;10.014;2022-07-06T04:01:17;6.95;;;2.45;;
38581;SDS011;24349;53.720;10.014;2022-07-06T04:03:43;7.05;;;1.67;;
38581;SDS011;24349;53.720;10.014;2022-07-06T04:06:09;7.00;;;2.00;;
38581;SDS011;24349;53.720;10.014;2022-07-06T04:08:35;8.00;;;1.90;;
38581;SDS011;24349;53.720;10.014;2022-07-06T04:11:01;7.32;;;2.10;;
38581;SDS011;24349;53.720;10.014;2022-07-06T04:13:27;6.30;;;2.00;;
38581;SDS011;24349;53.720;10.014;2022-07-06T04:15:53;7.75;;;2.10;;
38581;SDS011;24349;53.720;10.014;2022-07-06T04:18:19;7.38;;;2.03;;
38581;SDS011;24349;53.720;10.014;2022-07-06T04:20:44;6.30;;;1.92;;
38581;SDS011;24349;53.720;10.014;2022-07-06T04:23:10;8.20;;;2.00;;
38581;SDS011;24349;53.720;10.014;2022-07-06T04:25:36;7.68;;;2.10;;
38581;SDS011;24349;53.720;10.014;2022-07-06T04:28:02;6.43;;;2.25;;
38581;SDS011;24349;53.720;10.014;2022-07-06T04:30:29;6.80;;;1.83;;
38581;SDS011;24349;53.720;10.014;2022-07-06T04:32:55;6.68;;;2.05;;
38581;SDS011;24349;53.720;10.014;2022-07-06T04:35:21;6.38;;;2.47;;
38581;SDS011;24349;53.720;10.014;2022-07-06T04:37:47;5.63;;;2.00;;
38581;SDS011;24349;53.720;10.014;2022-07-06T04:40:13;6.32;;;1.90;;
38581;SDS011;24349;53.720;10.014;2022-07-06T04:42:39;7.10;;;2.25;;
38581;SDS011;24349;53.720;10.014;2022-07-06T04:45:05;4.15;;;1.65;;
38581;SDS011;24349;53.720;10.014;2022-07-06T04:47:31;10.23;;;2.08;;
38581;SDS011;24349;53.720;10.014;2022-07-06T04:49:57;7.20;;;2.05;;
38581;SDS011;24349;53.720;10.014;2022-07-06T04:52:22;7.03;;;1.80;;
38581;SDS011;24349;53.720;10.014;2022-07-06T04:54:48;6.30;;;1.92;;
38581;SDS011;24349;53.720;10.014;2022-07-06T04:57:14;6.10;;;1.88;;
38581;SDS011;24349;53.720;10.014;2022-07-06T04:59:40;5.53;;;1.73;;
38581;SDS011;24349;53.720;10.014;2022-07-06T05:02:06;6.15;;;1.73;;
38581;SDS011;24349;53.720;10.014;2022-07-06T05:04:31;6.63;;;1.90;;
38581;SDS011;24349;53.720;10.014;2022-07-06T05:06:57;6.68;;;1.92;;
38581;SDS011;24349;53.720;10.014;2022-07-06T05:09:23;7.28;;;1.70;;
38581;SDS011;24349;53.720;10.014;2022-07-06T05:11:49;6.38;;;2.03;;
38581;SDS011;24349;53.720;10.014;2022-07-06T05:14:15;5.15;;;1.60;;
38581;SDS011;24349;53.720;10.014;2022-07-06T05:16:40;6.35;;;1.95;;
38581;SDS011;24349;53.720;10.014;2022-07-06T05:19:06;5.70;;;1.60;;
38581;SDS011;24349;53.720;10.014;2022-07-06T05:21:32;7.55;;;1.88;;
38581;SDS011;24349;53.720;10.014;2022-07-06T05:23:57;6.57;;;2.00;;
38581;SDS011;24349;53.720;10.014;2022-07-06T05:26:23;8.02;;;2.75;;
38581;SDS011;24349;53.720;10.014;2022-07-06T05:28:48;6.30;;;1.70;;
38581;SDS011;24349;53.720;10.014;2022-07-06T05:31:14;5.35;;;1.92;;
38581;SDS011;24349;53.720;10.014;2022-07-06T05:33:40;6.65;;;2.10;;
38581;SDS011;24349;53.720;10.014;2022-07-06T05:36:06;6.85;;;1.77;;
38581;SDS011;24349;53.720;10.014;2022-07-06T05:38:32;5.97;;;1.75;;
38581;SDS011;24349;53.720;10.014;2022-07-06T05:40:58;7.68;;;1.80;;
38581;SDS011;24349;53.720;10.014;2022-07-06T05:43:24;5.60;;;1.38;;
38581;SDS011;24349;53.720;10.014;2022-07-06T05:45:50;7.00;;;1.90;;
38581;SDS011;24349;53.720;10.014;2022-07-06T05:48:15;7.45;;;1.63;;
38581;SDS011;24349;53.720;10.014;2022-07-06T05:51:00;9.13;;;2.00;;
38581;SDS011;24349;53.720;10.014;2022-07-06T05:53:26;5.60;;;1.98;;
38581;SDS011;24349;53.720;10.014;2022-07-06T05:55:51;7.53;;;2.20;;
38581;SDS011;24349;53.720;10.014;2022-07-06T05:58:17;5.90;;;1.70;;
38581;SDS011;24349;53.720;10.014;2022-07-06T06:00:43;9.45;;;2.78;;
38581;SDS011;24349;53.720;10.014;2022-07-06T06:03:09;8.95;;;1.80;;
38581;SDS011;24349;53.720;10.014;2022-07-06T06:05:35;8.25;;;1.75;;
38581;SDS011;24349;53.720;10.014;2022-07-06T06:08:01;7.68;;;2.00;;
38581;SDS011;24349;53.720;10.014;2022-07-06T06:10:26;5.93;;;1.58;;
38581;SDS011;24349;53.720;10.014;2022-07-06T06:12:52;6.22;;;1.60;;
38581;SDS011;24349;53.720;10.014;2022-07-06T06:15:18;5.38;;;2.17;;
38581;SDS011;24349;53.720;10.014;2022-07-06T06:17:44;8.80;;;1.83;;
38581;SDS011;24349;53.720;10.014;2022-07-06T06:20:11;8.35;;;1.98;;
38581;SDS011;24349;53.720;10.014;2022-07-06T06:23:11;6.35;;;1.60;;
38581;SDS011;24349;53.720;10.014;2022-07-06T06:25:37;7.22;;;1.77;;
38581;SDS011;24349;53.720;10.014;2022-07-06T06:28:04;5.30;;;1.70;;
38581;SDS011;24349;53.720;10.014;2022-07-06T06:30:31;7.97;;;2.05;;
38581;SDS011;24349;53.720;10.014;2022-07-06T06:33:30;9.10;;;1.70;;
38581;SDS011;24349;53.720;10.014;2022-07-06T06:35:52;6.25;;;1.63;;
38581;SDS011;24349;53.720;10.014;2022-07-06T06:38:19;8.32;;;1.77;;
38581;SDS011;24349;53.720;10.014;2022-07-06T06:40:46;8.32;;;2.10;;
38581;SDS011;24349;53.720;10.014;2022-07-06T06:43:12;6.50;;;2.00;;
38581;SDS011;24349;53.720;10.014;2022-07-06T06:45:38;5.57;;;1.50;;
38581;SDS011;24349;53.720;10.014;2022-07-06T06:48:04;7.05;;;1.67;;
38581;SDS011;24349;53.720;10.014;2022-07-06T06:50:30;7.05;;;1.45;;
38581;SDS011;24349;53.720;10.014;2022-07-06T06:52:55;7.15;;;1.50;;
38581;SDS011;24349;53.720;10.014;2022-07-06T06:55:21;6.28;;;1.27;;
38581;SDS011;24349;53.720;10.014;2022-07-06T06:57:47;6.70;;;1.50;;
38581;SDS011;24349;53.720;10.014;2022-07-06T07:00:12;7.15;;;1.60;;
38581;SDS011;24349;53.720;10.014;2022-07-06T07:02:39;9.10;;;2.30;;
38581;SDS011;24349;53.720;10.014;2022-07-06T07:05:05;7.90;;;1.67;;
38581;SDS011;24349;53.720;10.014;2022-07-06T07:07:31;7.00;;;1.38;;
38581;SDS011;24349;53.720;10.014;2022-07-06T07:09:58;5.97;;;1.88;;
38581;SDS011;24349;53.720;10.014;2022-07-06T07:12:23;5.20;;;1.65;;
38581;SDS011;24349;53.720;10.014;2022-07-06T07:14:49;6.20;;;1.58;;
38581;SDS011;24349;53.720;10.014;2022-07-06T07:17:16;5.70;;;1.42;;
38581;SDS011;24349;53.720;10.014;2022-07-06T07:19:42;7.65;;;1.85;;
38581;SDS011;24349;53.720;10.014;2022-07-06T07:22:08;4.38;;;1.30;;
38581;SDS011;24349;53.720;10.014;2022-07-06T07:24:33;8.07;;;1.75;;
38581;SDS011;24349;53.720;10.014;2022-07-06T07:26:59;5.13;;;1.50;;
38581;SDS011;24349;53.720;10.014;2022-07-06T07:29:25;3.97;;;1.40;;
38581;SDS011;24349;53.720;10.014;2022-07-06T07:31:50;7.05;;;1.60;;
38581;SDS011;24349;53.720;10.014;2022-07-06T07:34:16;6.78;;;1.60;;
38581;SDS011;24349;53.720;10.014;2022-07-06T07:36:42;8.50;;;1.80;;
38581;SDS011;24349;53.720;10.014;2022-07-06T07:39:08;7.15;;;1.60;;
38581;SDS011;24349;53.720;10.014;2022-07-06T07:41:33;6.05;;;1.52;;
38581;SDS011;24349;53.720;10.014;2022-07-06T07:43:59;6.05;;;1.50;;
38581;SDS011;24349;53.720;10.014;2022-07-06T07:46:25;6.25;;;1.75;;
38581;SDS011;24349;53.720;10.014;2022-07-06T07:48:50;6.80;;;1.70;;
38581;SDS011;24349;53.720;10.014;2022-07-06T07:51:16;7.03;;;1.70;;
38581;SDS011;24349;53.720;10.014;2022-07-06T07:53:43;5.38;;;1.70;;
38581;SDS011;24349;53.720;10.014;2022-07-06T07:56:09;8.55;;;1.70;;
38581;SDS011;24349;53.720;10.014;2022-07-06T07:58:35;9.50;;;1.77;;
38581;SDS011;24349;53.720;10.014;2022-07-06T08:01:00;4.13;;;1.30;;
38581;SDS011;24349;53.720;10.014;2022-07-06T08:03:26;4.60;;;1.48;;
38581;SDS011;24349;53.720;10.014;2022-07-06T08:05:52;4.70;;;1.23;;
38581;SDS011;24349;53.720;10.014;2022-07-06T08:08:18;6.03;;;1.42;;
38581;SDS011;24349;53.720;10.014;2022-07-06T08:10:43;6.20;;;1.30;;
38581;SDS011;24349;53.720;10.014;2022-07-06T08:13:09;6.25;;;1.40;;
38581;SDS011;24349;53.720;10.014;2022-07-06T08:15:36;4.22;;;1.30;;
38581;SDS011;24349;53.720;10.014;2022-07-06T08:18:01;6.18;;;1.30;;
38581;SDS011;24349;53.720;10.014;2022-07-06T08:20:28;7.38;;;1.40;;
38581;SDS011;24349;53.720;10.014;2022-07-06T08:22:54;5.32;;;1.30;;
38581;SDS011;24349;53.720;10.014;2022-07-06T08:25:20;4.22;;;1.30;;
38581;SDS011;24349;53.720;10.014;2022-07-06T08:27:46;5.20;;;1.30;;
38581;SDS011;24349;53.720;10.014;2022-07-06T08:30:11;6.10;;;1.20;;
38581;SDS011;24349;53.720;10.014;2022-07-06T08:32:38;4.47;;;1.30;;
38581;SDS011;24349;53.720;10.014;2022-07-06T08:35:07;5.13;;;1.48;;
38581;SDS011;24349;53.720;10.014;2022-07-06T08:37:34;4.93;;;1.40;;
38581;SDS011;24349;53.720;10.014;2022-07-06T08:39:59;4.40;;;1.30;;
38581;SDS011;24349;53.720;10.014;2022-07-06T08:42:27;6.22;;;1.20;;
38581;SDS011;24349;53.720;10.014;2022-07-06T08:44:57;4.70;;;1.33;;
38581;SDS011;24349;53.720;10.014;2022-07-06T08:47:24;4.88;;;1.30;;
38581;SDS011;24349;53.720;10.014;2022-07-06T08:49:52;5.25;;;1.45;;
38581;SDS011;24349;53.720;10.014;2022-07-06T08:52:18;4.90;;;1.30;;
38581;SDS011;24349;53.720;10.014;2022-07-06T08:54:45;3.38;;;1.25;;
38581;SDS011;24349;53.720;10.014;2022-07-06T08:57:11;3.60;;;1.10;;
38581;SDS011;24349;53.720;10.014;2022-07-06T08:59:38;4.85;;;1.30;;
38581;SDS011;24349;53.720;10.014;2022-07-06T09:02:04;5.32;;;1.40;;
38581;SDS011;24349;53.720;10.014;2022-07-06T09:04:30;3.80;;;1.20;;
38581;SDS011;24349;53.720;10.014;2022-07-06T09:06:58;4.22;;;1.20;;
38581;SDS011;24349;53.720;10.014;2022-07-06T09:09:24;3.63;;;1.10;;
38581;SDS011;24349;53.720;10.014;2022-07-06T09:11:50;3.25;;;1.00;;
38581;SDS011;24349;53.720;10.014;2022-07-06T09:14:16;3.63;;;1.20;;
38581;SDS011;24349;53.720;10.014;2022-07-06T09:16:44;2.95;;;0.88;;
38581;SDS011;24349;53.720;10.014;2022-07-06T09:19:11;2.50;;;0.93;;
38581;SDS011;24349;53.720;10.014;2022-07-06T09:21:37;3.38;;;0.80;;
38581;SDS011;24349;53.720;10.014;2022-07-06T09:24:09;2.78;;;1.02;;
38581;SDS011;24349;53.720;10.014;2022-07-06T09:26:36;3.00;;;0.88;;
38581;SDS011;24349;53.720;10.014;2022-07-06T09:29:03;2.45;;;0.75;;
38581;SDS011;24349;53.720;10.014;2022-07-06T09:31:29;2.08;;;0.80;;
38581;SDS011;24349;53.720;10.014;2022-07-06T09:33:59;3.15;;;0.70;;
38581;SDS011;24349;53.720;10.014;2022-07-06T09:36:36;2.22;;;0.80;;
38581;SDS011;24349;53.720;10.014;2022-07-06T09:39:23;3.72;;;1.02;;
38581;SDS011;24349;53.720;10.014;2022-07-06T09:41:54;2.80;;;0.90;;
38581;SDS011;24349;53.720;10.014;2022-07-06T09:44:22;3.20;;;1.05;;
38581;SDS011;24349;53.720;10.014;2022-07-06T09:46:58;4.10;;;0.85;;
38581;SDS011;24349;53.720;10.014;2022-07-06T09:49:25;5.13;;;0.93;;
38581;SDS011;24349;53.720;10.014;2022-07-06T09:51:52;2.90;;;0.88;;
38581;SDS011;24349;53.720;10.014;2022-07-06T09:54:22;4.22;;;0.82;;
38581;SDS011;24349;53.720;10.014;2022-07-06T09:56:48;5.50;;;1.00;;
38581;SDS011;24349;53.720;10.014;2022-07-06T09:59:17;5.43;;;1.10;;
38581;SDS011;24349;53.720;10.014;2022-07-06T10:01:44;4.47;;;0.88;;
38581;SDS011;24349;53.720;10.014;2022-07-06T10:04:11;3.70;;;0.80;;
38581;SDS011;24349;53.720;10.014;2022-07-06T10:06:38;3.63;;;0.98;;
38581;SDS011;24349;53.720;10.014;2022-07-06T10:09:08;3.40;;;0.82;;
38581;SDS011;24349;53.720;10.014;2022-07-06T10:11:39;2.63;;;0.80;;
38581;SDS011;24349;53.720;10.014;2022-07-06T10:14:06;2.70;;;0.80;;
38581;SDS011;24349;53.720;10.014;2022-07-06T10:16:34;4.82;;;1.00;;
38581;SDS011;24349;53.720;10.014;2022-07-06T10:19:02;3.65;;;0.90;;
38581;SDS011;24349;53.720;10.014;2022-07-06T10:21:36;3.05;;;0.90;;
38581;SDS011;24349;53.720;10.014;2022-07-06T10:24:06;5.00;;;1.10;;
38581;SDS011;24349;53.720;10.014;2022-07-06T10:26:33;6.22;;;1.15;;
38581;SDS011;24349;53.720;10.014;2022-07-06T10:29:02;6.63;;;1.40;;
38581;SDS011;24349;53.720;10.014;2022-07-06T10:31:29;4.20;;;1.10;;
38581;SDS011;24349;53.720;10.014;2022-07-06T10:33:55;5.53;;;1.10;;
38581;SDS011;24349;53.720;10.014;2022-07-06T10:36:23;6.38;;;1.05;;
38581;SDS011;24349;53.720;10.014;2022-07-06T10:38:50;5.68;;;1.15;;
38581;SDS011;24349;53.720;10.014;2022-07-06T10:41:17;5.85;;;1.38;;
38581;SDS011;24349;53.720;10.014;2022-07-06T10:43:47;4.63;;;0.95;;
38581;SDS011;24349;53.720;10.014;2022-07-06T10:46:14;4.13;;;0.90;;
38581;SDS011;24349;53.720;10.014;2022-07-06T10:48:46;2.95;;;0.80;;
38581;SDS011;24349;53.720;10.014;2022-07-06T10:51:13;5.43;;;0.90;;
38581;SDS011;24349;53.720;10.014;2022-07-06T10:53:58;5.00;;;0.98;;
38581;SDS011;24349;53.720;10.014;2022-07-06T10:56:36;3.92;;;1.33;;
38581;SDS011;24349;53.720;10.014;2022-07-06T10:59:10;3.70;;;0.82;;
38581;SDS011;24349;53.720;10.014;2022-07-06T11:01:37;3.60;;;0.80;;
38581;SDS011;24349;53.720;10.014;2022-07-06T11:06:34;3.25;;;0.88;;
38581;SDS011;24349;53.720;10.014;2022-07-06T11:09:02;3.15;;;0.90;;
38581;SDS011;24349;53.720;10.014;2022-07-06T11:13:59;3.00;;;0.90;;
38581;SDS011;24349;53.720;10.014;2022-07-06T11:16:27;6.13;;;0.98;;
38581;SDS011;24349;53.720;10.014;2022-07-06T11:21:35;3.95;;;0.90;;
38581;SDS011;24349;53.720;10.014;2022-07-06T11:24:07;2.95;;;0.93;;
38581;SDS011;24349;53.720;10.014;2022-07-06T11:26:37;4.82;;;1.05;;
38581;SDS011;24349;53.720;10.014;2022-07-06T11:29:04;4.35;;;0.98;;
38581;SDS011;24349;53.720;10.014;2022-07-06T11:31:35;4.90;;;0.93;;
38581;SDS011;24349;53.720;10.014;2022-07-06T11:34:06;4.43;;;0.90;;
38581;SDS011;24349;53.720;10.014;2022-07-06T11:36:33;4.82;;;1.00;;
38581;SDS011;24349;53.720;10.014;2022-07-06T11:38:59;4.15;;;0.90;;
38581;SDS011;24349;53.720;10.014;2022-07-06T11:41:25;3.35;;;0.75;;
38581;SDS011;24349;53.720;10.014;2022-07-06T11:43:50;4.40;;;1.02;;
38581;SDS011;24349;53.720;10.014;2022-07-06T11:46:24;3.40;;;0.88;;
38581;SDS011;24349;53.720;10.014;2022-07-06T11:51:24;2.70;;;0.70;;
38581;SDS011;24349;53.720;10.014;2022-07-06T11:53:53;2.85;;;0.80;;
38581;SDS011;24349;53.720;10.014;2022-07-06T11:56:20;5.45;;;0.82;;
38581;SDS011;24349;53.720;10.014;2022-07-06T11:58:50;2.58;;;0.73;;
38581;SDS011;24349;53.720;10.014;2022-07-06T12:01:18;4.43;;;1.08;;
38581;SDS011;24349;53.720;10.014;2022-07-06T12:03:44;4.07;;;0.68;;
38581;SDS011;24349;53.720;10.014;2022-07-06T12:08:57;4.38;;;1.38;;
38581;SDS011;24349;53.720;10.014;2022-07-06T12:11:25;4.85;;;0.82;;
38581;SDS011;24349;53.720;10.014;2022-07-06T12:13:56;4.80;;;1.00;;
38581;SDS011;24349;53.720;10.014;2022-07-06T12:16:28;3.60;;;0.80;;
38581;SDS011;24349;53.720;10.014;2022-07-06T12:18:56;6.88;;;1.05;;
38581;SDS011;24349;53.720;10.014;2022-07-06T12:21:22;3.45;;;0.90;;
38581;SDS011;24349;53.720;10.014;2022-07-06T12:23:48;3.67;;;0.75;;
38581;SDS011;24349;53.720;10.014;2022-07-06T12:26:18;3.22;;;0.85;;
38581;SDS011;24349;53.720;10.014;2022-07-06T12:28:45;3.55;;;0.90;;
38581;SDS011;24349;53.720;10.014;2022-07-06T12:31:37;3.63;;;0.85;;
38581;SDS011;24349;53.720;10.014;2022-07-06T12:36:50;4.05;;;1.00;;
38581;SDS011;24349;53.720;10.014;2022-07-06T12:39:24;3.13;;;0.73;;
38581;SDS011;24349;53.720;10.014;2022-07-06T12:41:51;3.22;;;0.77;;
38581;SDS011;24349;53.720;10.014;2022-07-06T12:44:28;2.92;;;0.70;;
38581;SDS011;24349;53.720;10.014;2022-07-06T12:47:04;3.63;;;0.80;;
38581;SDS011;24349;53.720;10.014;2022-07-06T12:49:32;2.92;;;0.68;;
38581;SDS011;24349;53.720;10.014;2022-07-06T12:54:29;2.33;;;0.60;;
38581;SDS011;24349;53.720;10.014;2022-07-06T12:57:01;2.55;;;0.80;;
38581;SDS011;24349;53.720;10.014;2022-07-06T12:59:29;4.97;;;1.15;;
38581;SDS011;24349;53.720;10.014;2022-07-06T13:01:55;3.50;;;1.10;;
38581;SDS011;24349;53.720;10.014;2022-07-06T13:04:23;3.10;;;0.88;;
38581;SDS011;24349;53.720;10.014;2022-07-06T13:06:49;3.00;;;0.75;;
38581;SDS011;24349;53.720;10.014;2022-07-06T13:09:15;5.70;;;1.00;;
38581;SDS011;24349;53.720;10.014;2022-07-06T13:11:42;2.83;;;0.77;;
38581;SDS011;24349;53.720;10.014;2022-07-06T13:14:08;2.60;;;0.80;;
38581;SDS011;24349;53.720;10.014;2022-07-06T13:16:34;3.65;;;0.70;;
38581;SDS011;24349;53.720;10.014;2022-07-06T13:19:03;3.47;;;1.10;;
38581;SDS011;24349;53.720;10.014;2022-07-06T13:21:29;5.40;;;1.00;;
38581;SDS011;24349;53.720;10.014;2022-07-06T13:23:55;3.08;;;0.88;;
38581;SDS011;24349;53.720;10.014;2022-07-06T13:26:20;3.40;;;0.88;;
38581;SDS011;24349;53.720;10.014;2022-07-06T13:28:46;4.30;;;1.02;;
38581;SDS011;24349;53.720;10.014;2022-07-06T13:31:12;5.60;;;1.35;;
38581;SDS011;24349;53.720;10.014;2022-07-06T13:33:37;4.07;;;0.80;;
38581;SDS011;24349;53.720;10.014;2022-07-06T13:36:03;2.97;;;0.80;;
38581;SDS011;24349;53.720;10.014;2022-07-06T13:38:29;3.67;;;1.08;;
38581;SDS011;24349;53.720;10.014;2022-07-06T13:40:56;4.85;;;1.02;;
38581;SDS011;24349;53.720;10.014;2022-07-06T13:43:22;4.38;;;0.93;;
38581;SDS011;24349;53.720;10.014;2022-07-06T13:45:48;4.10;;;0.88;;
38581;SDS011;24349;53.720;10.014;2022-07-06T13:48:14;3.25;;;0.98;;
38581;SDS011;24349;53.720;10.014;2022-07-06T13:50:40;3.75;;;0.85;;
38581;SDS011;24349;53.720;10.014;2022-07-06T13:53:05;2.55;;;0.80;;
38581;SDS011;24349;53.720;10.014;2022-07-06T13:55:32;3.08;;;0.70;;
38581;SDS011;24349;53.720;10.014;2022-07-06T13:57:58;3.08;;;0.80;;
38581;SDS011;24349;53.720;10.014;2022-07-06T14:00:24;3.80;;;0.73;;
38581;SDS011;24349;53.720;10.014;2022-07-06T14:02:50;6.03;;;1.45;;
38581;SDS011;24349;53.720;10.014;2022-07-06T14:05:15;2.28;;;0.60;;
38581;SDS011;24349;53.720;10.014;2022-07-06T14:07:41;3.00;;;0.60;;
38581;SDS011;24349;53.720;10.014;2022-07-06T14:10:07;4.60;;;1.00;;
38581;SDS011;24349;53.720;10.014;2022-07-06T14:12:34;3.85;;;0.82;;
38581;SDS011;24349;53.720;10.014;2022-07-06T14:15:00;3.85;;;0.77;;
38581;SDS011;24349;53.720;10.014;2022-07-06T14:17:26;3.83;;;0.80;;
38581;SDS011;24349;53.720;10.014;2022-07-06T14:19:51;2.85;;;0.75;;
38581;SDS011;24349;53.720;10.014;2022-07-06T14:22:17;3.47;;;0.93;;
38581;SDS011;24349;53.720;10.014;2022-07-06T14:24:43;3.65;;;0.80;;
38581;SDS011;24349;53.720;10.014;2022-07-06T14:27:09;3.97;;;0.80;;
38581;SDS011;24349;53.720;10.014;2022-07-06T14:29:34;4.32;;;0.98;;
38581;SDS011;24349;53.720;10.014;2022-07-06T14:32:00;3.97;;;1.00;;
38581;SDS011;24349;53.720;10.014;2022-07-06T14:34:25;4.70;;;0.82;;
38581;SDS011;24349;53.720;10.014;2022-07-06T14:36:51;4.47;;;1.10;;
38581;SDS011;24349;53.720;10.014;2022-07-06T14:39:17;3.90;;;0.93;;
38581;SDS011;24349;53.720;10.014;2022-07-06T14:41:43;3.65;;;0.80;;
38581;SDS011;24349;53.720;10.014;2022-07-06T14:44:09;4.30;;;1.17;;
38581;SDS011;24349;53.720;10.014;2022-07-06T14:46:34;4.13;;;1.20;;
38581;SDS011;24349;53.720;10.014;2022-07-06T14:49:00;3.50;;;0.90;;
38581;SDS011;24349;53.720;10.014;2022-07-06T14:51:26;4.13;;;0.98;;